createdAt,value
2022-08-28T00:00:30.011Z,99306.50
2022-08-28T00:03:06.847Z,99304.41
2022-08-28T00:05:39.006Z,99304.52
2022-08-28T00:08:07.925Z,99304.26
2022-08-28T00:10:38.745Z,99303.46
2022-08-28T00:13:08.870Z,99301.66
2022-08-28T00:15:38.619Z,99304.21
2022-08-28T00:18:07.273Z,99306.39
2022-08-28T00:20:35.367Z,99306.09
2022-08-28T00:23:02.620Z,99308.66
2022-08-28T00:25:31.412Z,99311.15
2022-08-28T00:28:05.461Z,99314.95
2022-08-28T00:30:50.117Z,99312.46
2022-08-28T00:33:29.626Z,99312.89
2022-08-28T00:35:58.165Z,99310.98
2022-08-28T00:38:26.831Z,99310.70
2022-08-28T00:40:59.878Z,99310.52
2022-08-28T00:43:41.687Z,99309.76
2022-08-28T00:46:22.920Z,99317.19
2022-08-28T00:48:50.640Z,99318.15
2022-08-28T00:51:38.958Z,99322.41
2022-08-28T00:54:08.169Z,99321.33
2022-08-28T00:56:39.429Z,99321.45
2022-08-28T00:59:17.282Z,99321.63
2022-08-28T01:01:47.763Z,99322.34
2022-08-28T01:04:19.756Z,99321.55
2022-08-28T01:06:52.102Z,99320.80
2022-08-28T01:09:22.269Z,99327.70
2022-08-28T01:11:52.365Z,99325.19
2022-08-28T01:14:26.307Z,99325.15
2022-08-28T01:16:57.347Z,99321.15
2022-08-28T01:19:46.404Z,99327.05
2022-08-28T01:22:45.407Z,99325.16
2022-08-28T01:25:18.604Z,99321.36
2022-08-28T01:27:46.602Z,99317.45
2022-08-28T01:30:19.554Z,99314.97
2022-08-28T01:32:51.521Z,99316.15
2022-08-28T01:35:25.425Z,99314.06
2022-08-28T01:37:55.441Z,99311.13
2022-08-28T01:40:36.594Z,99305.98
2022-08-28T01:43:16.875Z,99303.84
2022-08-28T01:45:51.568Z,99304.16
2022-08-28T01:48:21.630Z,99300.76
2022-08-28T01:50:49.596Z,99305.89
2022-08-28T01:53:24.763Z,99310.41
2022-08-28T01:55:55.252Z,99313.15
2022-08-28T01:58:24.409Z,99314.81
2022-08-28T02:00:55.185Z,99316.18
2022-08-28T02:03:23.255Z,99318.40
2022-08-28T02:05:51.018Z,99317.74
2022-08-28T02:08:18.484Z,99314.02
2022-08-28T02:10:46.445Z,99312.92
2022-08-28T02:13:13.697Z,99317.45
2022-08-28T02:15:42.730Z,99315.91
2022-08-28T02:18:10.470Z,99317.72
2022-08-28T02:20:38.013Z,99316.14
2022-08-28T02:23:05.909Z,99313.56
2022-08-28T02:25:33.238Z,99312.67
2022-08-28T02:28:00.695Z,99311.60
2022-08-28T02:30:28.261Z,99310.73
2022-08-28T02:32:55.702Z,99312.45
2022-08-28T02:35:23.861Z,99313.94
2022-08-28T02:37:51.947Z,99314.04
2022-08-28T02:40:23.911Z,99312.01
2022-08-28T02:42:51.779Z,99315.30
2022-08-28T02:45:20.498Z,99319.70
2022-08-28T02:47:47.921Z,99320.79
2022-08-28T02:50:18.429Z,99319.36
2022-08-28T02:52:46.105Z,99318.55
2022-08-28T02:55:17.043Z,99315.33
2022-08-28T02:57:46.225Z,99319.04
2022-08-28T03:00:16.788Z,99320.33
2022-08-28T03:02:45.965Z,99319.55
2022-08-28T03:05:18.351Z,99320.86
2022-08-28T03:07:45.604Z,99322.43
2022-08-28T03:10:13.204Z,99328.39
2022-08-28T03:12:40.886Z,99332.91
2022-08-28T03:15:09.089Z,99334.65
2022-08-28T03:17:36.795Z,99335.83
2022-08-28T03:20:07.497Z,99338.02
2022-08-28T03:22:53.376Z,99338.98
2022-08-28T03:25:21.966Z,99338.63
2022-08-28T03:27:49.366Z,99337.54
2022-08-28T03:30:18.307Z,99338.04
2022-08-28T03:32:45.695Z,99341.22
2022-08-28T03:35:13.132Z,99341.72
2022-08-28T03:37:40.793Z,99342.02
2022-08-28T03:40:09.704Z,99343.70
2022-08-28T03:42:37.129Z,99347.79
2022-08-28T03:45:08.998Z,99343.20
2022-08-28T03:47:41.568Z,99342.41
2022-08-28T03:50:11.618Z,99340.20
2022-08-28T03:52:40.495Z,99344.20
2022-08-28T03:55:11.299Z,99347.58
2022-08-28T03:57:39.613Z,99349.48
2022-08-28T04:00:11.805Z,99354.41
2022-08-28T04:02:43.960Z,99356.16
2022-08-28T04:05:11.861Z,99355.16
2022-08-28T04:07:40.059Z,99358.63
2022-08-28T04:10:08.122Z,99360.63
2022-08-28T04:12:36.616Z,99360.55
2022-08-28T04:15:06.411Z,99362.94
2022-08-28T04:17:37.890Z,99360.95
2022-08-28T04:20:08.074Z,99361.20
2022-08-28T04:22:36.780Z,99366.70
2022-08-28T04:25:06.306Z,99364.20
2022-08-28T04:27:33.657Z,99367.71
2022-08-28T04:30:01.003Z,99366.42
2022-08-28T04:32:28.584Z,99368.70
2022-08-28T04:34:55.703Z,99372.70
2022-08-28T04:37:22.885Z,99376.96
2022-08-28T04:39:55.066Z,99373.38
2022-08-28T04:42:22.370Z,99370.98
2022-08-28T04:44:49.657Z,99372.39
2022-08-28T04:47:16.878Z,99367.38
2022-08-28T04:49:44.163Z,99371.39
2022-08-28T04:52:11.499Z,99368.05
2022-08-28T04:54:39.558Z,99374.75
2022-08-28T04:57:07.046Z,99378.20
2022-08-28T04:59:36.931Z,99376.46
2022-08-28T05:02:05.321Z,99383.14
2022-08-28T05:04:32.522Z,99383.65
2022-08-28T05:06:59.942Z,99385.30
2022-08-28T05:09:27.273Z,99387.00
2022-08-28T05:11:54.610Z,99386.94
2022-08-28T05:14:21.777Z,99388.02
2022-08-28T05:16:52.662Z,99389.09
2022-08-28T05:19:21.079Z,99397.17
2022-08-28T05:21:48.347Z,99399.45
2022-08-28T05:24:15.797Z,99400.92
2022-08-28T05:26:43.165Z,99401.95
2022-08-28T05:29:11.121Z,99399.70
2022-08-28T05:31:40.929Z,99406.17
2022-08-28T05:34:10.131Z,99405.45
2022-08-28T05:36:38.845Z,99406.54
2022-08-28T05:39:09.553Z,99405.43
2022-08-28T05:41:39.055Z,99411.75
2022-08-28T05:44:09.170Z,99407.20
2022-08-28T05:46:39.181Z,99413.14
2022-08-28T05:49:10.016Z,99410.35
2022-08-28T05:51:41.887Z,99413.37
2022-08-28T05:54:10.455Z,99412.40
2022-08-28T05:56:40.205Z,99410.00
2022-08-28T05:59:09.056Z,99407.69
2022-08-28T06:01:42.329Z,99408.72
2022-08-28T06:04:17.407Z,99414.00
2022-08-28T06:06:45.732Z,99412.44
2022-08-28T06:09:19.980Z,99416.92
2022-08-28T06:11:48.400Z,99415.88
2022-08-28T06:14:20.185Z,99416.86
2022-08-28T06:16:54.438Z,99420.13
2022-08-28T06:19:24.149Z,99421.08
2022-08-28T06:21:56.711Z,99422.99
2022-08-28T06:24:25.865Z,99423.25
2022-08-28T06:26:58.050Z,99417.06
2022-08-28T06:29:28.736Z,99416.66
2022-08-28T06:32:00.678Z,99417.34
2022-08-28T06:34:28.861Z,99419.17
2022-08-28T06:36:56.217Z,99423.14
2022-08-28T06:39:23.985Z,99426.45
2022-08-28T06:41:51.231Z,99428.66
2022-08-28T06:44:21.518Z,99429.19
2022-08-28T06:46:52.430Z,99420.77
2022-08-28T06:49:20.150Z,99427.69
2022-08-28T06:51:48.121Z,99427.93
2022-08-28T06:54:21.779Z,99423.80
2022-08-28T06:56:52.129Z,99429.29
2022-08-28T06:59:19.927Z,99428.02
2022-08-28T07:01:48.047Z,99426.11
2022-08-28T07:04:15.548Z,99425.40
2022-08-28T07:06:53.028Z,99427.54
2022-08-28T07:09:23.765Z,99429.54
2022-08-28T07:11:51.334Z,99431.73
2022-08-28T07:14:18.513Z,99428.33
2022-08-28T07:16:45.654Z,99431.05
2022-08-28T07:19:13.237Z,99422.83
2022-08-28T07:21:44.125Z,99416.50
2022-08-28T07:24:14.347Z,99411.98
2022-08-28T07:26:43.365Z,99411.74
2022-08-28T07:29:12.026Z,99412.60
2022-08-28T07:31:42.246Z,99415.53
2022-08-28T07:34:11.598Z,99412.92
2022-08-28T07:36:40.124Z,99414.99
2022-08-28T07:39:08.810Z,99415.95
2022-08-28T07:41:38.716Z,99419.48
2022-08-28T07:44:26.359Z,99420.16
2022-08-28T07:46:56.548Z,99418.94
2022-08-28T07:49:24.749Z,99419.54
2022-08-28T07:51:54.334Z,99420.05
2022-08-28T07:54:23.233Z,99423.94
2022-08-28T07:56:52.269Z,99423.17
2022-08-28T07:59:20.065Z,99425.17
2022-08-28T08:01:51.161Z,99425.99
2022-08-28T08:04:20.741Z,99424.03
2022-08-28T08:06:48.489Z,99422.67
2022-08-28T08:09:18.943Z,99424.02
2022-08-28T08:11:47.357Z,99423.44
2022-08-28T08:14:17.126Z,99426.99
2022-08-28T08:16:47.220Z,99427.67
2022-08-28T08:19:16.115Z,99430.05
2022-08-28T08:21:48.069Z,99433.88
2022-08-28T08:24:20.380Z,99435.33
2022-08-28T08:26:58.827Z,99436.95
2022-08-28T08:29:35.365Z,99436.23
2022-08-28T08:32:07.975Z,99435.32
2022-08-28T08:34:40.065Z,99436.13
2022-08-28T08:37:08.422Z,99434.89
2022-08-28T08:39:37.181Z,99430.42
2022-08-28T08:42:07.283Z,99433.83
2022-08-28T08:44:47.214Z,99427.04
2022-08-28T08:47:21.957Z,99428.30
2022-08-28T08:50:02.555Z,99425.02
2022-08-28T08:52:45.756Z,99424.27
2022-08-28T08:55:35.076Z,99419.29
2022-08-28T08:58:10.914Z,99420.96
2022-08-28T09:01:23.255Z,99420.95
2022-08-28T09:04:09.786Z,99422.36
2022-08-28T09:06:55.682Z,99420.51
2022-08-28T09:09:41.383Z,99416.80
2022-08-28T09:12:16.702Z,99413.45
2022-08-28T09:15:12.331Z,99411.06
2022-08-28T09:17:53.701Z,99417.05
2022-08-28T09:20:32.722Z,99416.44
2022-08-28T09:23:00.594Z,99416.25
2022-08-28T09:26:03.313Z,99417.89
2022-08-28T09:28:40.571Z,99416.70
2022-08-28T09:31:31.227Z,99415.32
2022-08-28T09:34:23.838Z,99417.65
2022-08-28T09:36:56.581Z,99417.45
2022-08-28T09:39:33.579Z,99415.54
2022-08-28T09:42:40.971Z,99415.73
2022-08-28T09:45:20.882Z,99416.01
2022-08-28T09:47:57.193Z,99414.47
2022-08-28T09:50:36.317Z,99418.27
2022-08-28T09:53:09.289Z,99415.16
2022-08-28T09:55:49.868Z,99416.63
2022-08-28T09:58:19.945Z,99415.40
2022-08-28T10:01:20.966Z,99413.60
2022-08-28T10:04:27.722Z,99409.32
2022-08-28T10:07:17.688Z,99408.43
2022-08-28T10:10:31.794Z,99406.89
2022-08-28T10:13:35.140Z,99406.11
2022-08-28T10:16:39.825Z,99404.33
2022-08-28T10:19:33.426Z,99406.02
2022-08-28T10:22:35.294Z,99398.68
2022-08-28T10:25:21.904Z,99398.93
2022-08-28T10:28:31.039Z,99398.42
2022-08-28T10:31:26.895Z,99393.48
2022-08-28T10:34:22.374Z,99395.06
2022-08-28T10:37:21.165Z,99391.19
2022-08-28T10:39:57.295Z,99390.02
2022-08-28T10:42:40.553Z,99389.87
2022-08-28T10:45:16.644Z,99387.70
2022-08-28T10:47:54.297Z,99386.08
2022-08-28T10:50:47.365Z,99388.35
2022-08-28T10:53:38.193Z,99382.52
2022-08-28T10:56:43.302Z,99386.48
2022-08-28T10:59:11.733Z,99382.52
2022-08-28T11:01:42.260Z,99384.42
2022-08-28T11:04:24.886Z,99379.54
2022-08-28T11:07:01.013Z,99376.98
2022-08-28T11:09:38.153Z,99376.52
2022-08-28T11:12:19.347Z,99380.73
2022-08-28T11:14:50.799Z,99380.89
2022-08-28T11:17:30.044Z,99382.73
2022-08-28T11:20:07.720Z,99380.94
2022-08-28T11:22:45.918Z,99374.66
2022-08-28T11:25:42.993Z,99371.97
2022-08-28T11:28:27.132Z,99371.16
2022-08-28T11:31:06.493Z,99373.80
2022-08-28T11:33:49.424Z,99373.21
2022-08-28T11:36:22.271Z,99371.98
2022-08-28T11:38:52.806Z,99368.80
2022-08-28T11:41:24.046Z,99369.73
2022-08-28T11:44:13.408Z,99366.63
2022-08-28T11:46:52.132Z,99363.45
2022-08-28T11:49:34.138Z,99363.77
2022-08-28T11:52:22.582Z,99361.77
2022-08-28T11:55:08.449Z,99362.38
2022-08-28T12:01:02.983Z,99353.86
2022-08-28T12:04:08.059Z,99352.94
2022-08-28T12:06:51.657Z,99351.86
2022-08-28T12:09:39.905Z,99355.15
2022-08-28T12:12:44.984Z,99356.89
2022-08-28T12:15:28.273Z,99359.53
2022-08-28T12:18:10.293Z,99359.75
2022-08-28T12:20:53.283Z,99359.86
2022-08-28T12:23:23.308Z,99354.66
2022-08-28T12:26:03.872Z,99352.33
2022-08-28T12:28:36.948Z,99352.35
2022-08-28T12:31:04.262Z,99352.38
2022-08-28T12:33:50.040Z,99350.34
2022-08-28T12:36:26.109Z,99349.08
2022-08-28T12:38:59.998Z,99351.09
2022-08-28T12:41:27.830Z,99353.05
2022-08-28T12:43:59.485Z,99352.11
2022-08-28T12:46:35.759Z,99350.98
2022-08-28T12:49:25.121Z,99350.59
2022-08-28T12:52:30.868Z,99344.44
2022-08-28T12:54:58.535Z,99343.16
2022-08-28T12:57:25.784Z,99343.40
2022-08-28T13:00:06.143Z,99341.77
2022-08-28T13:02:34.391Z,99341.05
2022-08-28T13:05:04.520Z,99341.56
2022-08-28T13:07:47.155Z,99342.98
2022-08-28T13:10:47.468Z,99339.64
2022-08-28T13:13:29.980Z,99337.24
2022-08-28T13:16:02.252Z,99336.23
2022-08-28T13:18:52.541Z,99338.23
2022-08-28T13:21:33.060Z,99337.21
2022-08-28T13:24:21.404Z,99334.54
2022-08-28T13:27:11.856Z,99335.48
2022-08-28T13:30:21.637Z,99334.48
2022-08-28T13:33:21.681Z,99336.80
2022-08-28T13:35:49.990Z,99335.38
2022-08-28T13:38:18.608Z,99336.20
2022-08-28T13:40:58.337Z,99331.09
2022-08-28T13:43:30.222Z,99335.54
2022-08-28T13:45:57.516Z,99336.30
2022-08-28T13:48:27.069Z,99333.98
2022-08-28T13:51:08.610Z,99332.44
2022-08-28T13:53:38.340Z,99329.11
2022-08-28T13:56:05.596Z,99329.44
2022-08-28T13:58:33.151Z,99328.92
2022-08-28T14:01:00.614Z,99327.98
2022-08-28T14:03:40.820Z,99327.81
2022-08-28T14:06:18.158Z,99329.88
2022-08-28T14:08:46.420Z,99330.65
2022-08-28T14:11:14.825Z,99332.74
2022-08-28T14:13:47.100Z,99331.13
2022-08-28T14:16:25.734Z,99334.11
2022-08-28T14:18:53.858Z,99330.56
2022-08-28T14:21:21.803Z,99329.14
2022-08-28T14:23:49.079Z,99330.79
2022-08-28T14:26:16.346Z,99328.75
2022-08-28T14:28:43.514Z,99329.28
2022-08-28T14:31:14.412Z,99330.31
2022-08-28T14:33:45.193Z,99329.20
2022-08-28T14:36:26.500Z,99326.86
2022-08-28T14:38:56.452Z,99326.33
2022-08-28T14:41:24.843Z,99329.05
2022-08-28T14:43:53.316Z,99329.56
2022-08-28T14:46:32.153Z,99327.21
2022-08-28T14:49:04.837Z,99328.70
2022-08-28T14:51:35.315Z,99330.71
2022-08-28T14:54:04.390Z,99331.60
2022-08-28T14:56:32.273Z,99335.96
2022-08-28T14:59:01.507Z,99337.41
2022-08-28T15:01:40.212Z,99340.14
2022-08-28T15:04:14.643Z,99338.81
2022-08-28T15:06:43.561Z,99337.69
2022-08-28T15:09:13.125Z,99341.52
2022-08-28T15:11:41.804Z,99341.70
2022-08-28T15:14:10.317Z,99344.64
2022-08-28T15:16:42.741Z,99346.39
2022-08-28T15:19:11.880Z,99344.81
2022-08-28T15:21:49.173Z,99342.73
2022-08-28T15:24:19.574Z,99343.57
2022-08-28T15:26:46.734Z,99340.06
2022-08-28T15:29:14.506Z,99339.54
2022-08-28T15:31:45.682Z,99338.36
2022-08-28T15:34:22.001Z,99337.00
2022-08-28T15:36:54.693Z,99336.55
2022-08-28T15:39:44.366Z,99339.08
2022-08-28T15:42:12.148Z,99341.56
2022-08-28T15:44:39.942Z,99340.08
2022-08-28T15:47:08.079Z,99336.70
2022-08-28T15:49:43.416Z,99337.21
2022-08-28T15:52:14.973Z,99340.96
2022-08-28T15:54:42.400Z,99334.05
2022-08-28T15:57:09.741Z,99335.95
2022-08-28T15:59:48.769Z,99338.25
2022-08-28T16:02:21.629Z,99340.26
2022-08-28T16:04:49.776Z,99337.82
2022-08-28T16:07:19.152Z,99334.91
2022-08-28T16:09:47.241Z,99336.58
2022-08-28T16:12:15.189Z,99337.11
2022-08-28T16:14:42.865Z,99335.09
2022-08-28T16:17:11.317Z,99330.60
2022-08-28T16:19:39.852Z,99334.02
2022-08-28T16:22:09.023Z,99336.73
2022-08-28T16:24:36.634Z,99337.26
2022-08-28T16:27:04.687Z,99341.91
2022-08-28T16:29:35.482Z,99343.61
2022-08-28T16:32:05.439Z,99339.25
2022-08-28T16:34:33.947Z,99340.87
2022-08-28T16:37:01.300Z,99338.31
2022-08-28T16:39:28.577Z,99340.67
2022-08-28T16:41:56.056Z,99340.14
2022-08-28T16:44:25.741Z,99339.64
2022-08-28T16:46:54.385Z,99338.98
2022-08-28T16:49:23.047Z,99340.54
2022-08-28T16:51:50.316Z,99343.09
2022-08-28T16:54:17.999Z,99342.96
2022-08-28T16:56:46.249Z,99344.91
2022-08-28T16:59:17.479Z,99344.56
2022-08-28T17:01:45.304Z,99349.64
2022-08-28T17:04:20.708Z,99350.73
2022-08-28T17:06:48.133Z,99358.48
2022-08-28T17:09:15.693Z,99366.23
2022-08-28T17:11:42.974Z,99369.56
2022-08-28T17:14:11.559Z,99373.00
2022-08-28T17:16:39.180Z,99376.10
2022-08-28T17:19:06.543Z,99382.05
2022-08-28T17:21:52.178Z,99385.55
2022-08-28T17:24:19.699Z,99391.90
2022-08-28T17:26:47.142Z,99397.02
2022-08-28T17:29:15.315Z,99400.45
2022-08-28T17:31:42.627Z,99405.39
2022-08-28T17:34:10.373Z,99403.67
2022-08-28T17:36:40.552Z,99408.58
2022-08-28T17:39:16.907Z,99406.95
2022-08-28T17:41:44.340Z,99411.20
2022-08-28T17:44:13.263Z,99415.61
2022-08-28T17:46:40.776Z,99417.16
2022-08-28T17:49:09.816Z,99421.45
2022-08-28T17:51:43.047Z,99427.52
2022-08-28T17:54:13.963Z,99430.41
2022-08-28T17:56:41.922Z,99427.98
2022-08-28T17:59:11.044Z,99429.71
2022-08-28T18:01:39.397Z,99429.37
2022-08-28T18:04:07.458Z,99433.08
2022-08-28T18:06:34.813Z,99429.16
2022-08-28T18:09:03.836Z,99438.17
2022-08-28T18:11:31.085Z,99436.23
2022-08-28T18:13:59.430Z,99441.37
2022-08-28T18:16:31.342Z,99439.04
2022-08-28T18:19:00.605Z,99450.15
2022-08-28T18:21:29.388Z,99449.73
2022-08-28T18:23:57.069Z,99449.52
2022-08-28T18:26:24.599Z,99448.79
2022-08-28T18:28:52.224Z,99451.10
2022-08-28T18:31:20.763Z,99450.11
2022-08-28T18:33:51.994Z,99451.15
2022-08-28T18:36:18.731Z,99452.11
2022-08-28T18:38:46.905Z,99455.50
2022-08-28T18:41:14.806Z,99451.88
2022-08-28T18:43:41.884Z,99453.99
2022-08-28T18:46:09.593Z,99459.95
2022-08-28T18:48:37.633Z,99463.20
2022-08-28T18:51:07.298Z,99462.84
2022-08-28T18:53:35.634Z,99467.45
2022-08-28T18:56:03.903Z,99471.61
2022-08-28T18:58:32.133Z,99471.25
2022-08-28T19:01:01.935Z,99476.80
2022-08-28T19:03:30.266Z,99472.90
2022-08-28T19:05:57.729Z,99478.96
2022-08-28T19:08:25.793Z,99476.66
2022-08-28T19:10:54.104Z,99480.30
2022-08-28T19:13:21.583Z,99477.85
2022-08-28T19:15:52.258Z,99474.56
2022-08-28T19:18:20.383Z,99475.59
2022-08-28T19:20:47.908Z,99478.08
2022-08-28T19:23:17.838Z,99482.61
2022-08-28T19:25:45.936Z,99484.83
2022-08-28T19:28:13.399Z,99487.52
2022-08-28T19:30:41.109Z,99487.26
2022-08-28T19:33:12.730Z,99485.98
2022-08-28T19:35:40.321Z,99488.42
2022-08-28T19:38:07.471Z,99485.96
2022-08-28T19:40:34.654Z,99489.83
2022-08-28T19:43:01.868Z,99492.54
2022-08-28T19:45:29.845Z,99497.33
2022-08-28T19:47:58.588Z,99496.77
2022-08-28T19:50:26.311Z,99498.38
2022-08-28T19:52:53.748Z,99500.32
2022-08-28T19:55:26.837Z,99503.31
2022-08-28T19:57:54.785Z,99506.41
2022-08-28T20:00:31.478Z,99509.71
2022-08-28T20:02:59.372Z,99513.00
2022-08-28T20:05:26.702Z,99516.02
2022-08-28T20:07:53.848Z,99516.19
2022-08-28T20:10:20.961Z,99519.36
2022-08-28T20:12:48.800Z,99522.35
2022-08-28T20:15:18.902Z,99525.96
2022-08-28T20:17:49.770Z,99528.36
2022-08-28T20:20:21.366Z,99530.73
2022-08-28T20:22:48.625Z,99531.00
2022-08-28T20:25:21.853Z,99534.23
2022-08-28T20:27:49.475Z,99533.50
2022-08-28T20:30:17.423Z,99534.55
2022-08-28T20:32:45.133Z,99534.63
2022-08-28T20:35:13.925Z,99536.40
2022-08-28T20:37:45.123Z,99534.07
2022-08-28T20:40:17.761Z,99534.12
2022-08-28T20:42:45.685Z,99533.24
2022-08-28T20:45:14.658Z,99534.13
2022-08-28T20:47:42.418Z,99536.19
2022-08-28T20:50:10.318Z,99531.77
2022-08-28T20:52:38.686Z,99536.29
2022-08-28T20:55:07.940Z,99536.53
2022-08-28T20:57:35.957Z,99536.48
2022-08-28T21:00:08.673Z,99537.09
2022-08-28T21:02:36.705Z,99538.10
2022-08-28T21:05:05.188Z,99537.45
2022-08-28T21:07:34.491Z,99538.40
2022-08-28T21:10:06.746Z,99541.57
2022-08-28T21:12:37.380Z,99542.44
2022-08-28T21:15:08.158Z,99547.35
2022-08-28T21:17:35.776Z,99540.91
2022-08-28T21:20:10.174Z,99536.69
2022-08-28T21:22:38.536Z,99536.38
2022-08-28T21:25:08.837Z,99537.62
2022-08-28T21:27:37.761Z,99539.91
2022-08-28T21:30:07.813Z,99541.12
2022-08-28T21:32:35.676Z,99539.55
2022-08-28T21:35:05.790Z,99537.43
2022-08-28T21:37:33.666Z,99542.45
2022-08-28T21:40:02.002Z,99546.54
2022-08-28T21:42:29.394Z,99550.34
2022-08-28T21:44:56.510Z,99554.56
2022-08-28T21:47:24.407Z,99551.86
2022-08-28T21:49:55.261Z,99549.50
2022-08-28T21:52:27.102Z,99551.06
2022-08-28T21:55:07.838Z,99552.77
2022-08-28T21:57:35.432Z,99552.29
2022-08-28T22:00:11.588Z,99549.25
2022-08-28T22:02:39.253Z,99547.91
2022-08-28T22:05:07.724Z,99544.65
2022-08-28T22:07:35.707Z,99551.23
2022-08-28T22:10:04.677Z,99550.60
2022-08-28T22:12:32.902Z,99553.15
2022-08-28T22:15:00.617Z,99553.19
2022-08-28T22:17:29.210Z,99557.26
2022-08-28T22:19:56.362Z,99556.10
2022-08-28T22:22:42.465Z,99553.75
2022-08-28T22:25:09.919Z,99552.91
2022-08-28T22:27:37.165Z,99553.48
2022-08-28T22:30:05.568Z,99553.02
2022-08-28T22:32:33.030Z,99556.64
2022-08-28T22:35:00.566Z,99553.15
2022-08-28T22:37:27.710Z,99555.71
2022-08-28T22:39:54.899Z,99556.55
2022-08-28T22:42:22.717Z,99560.83
2022-08-28T22:44:50.025Z,99558.91
2022-08-28T22:47:19.012Z,99559.70
2022-08-28T22:49:46.737Z,99556.70
2022-08-28T22:52:15.116Z,99557.94
2022-08-28T22:54:43.699Z,99558.20
2022-08-28T22:57:11.463Z,99556.90
2022-08-28T22:59:38.920Z,99556.48
2022-08-28T23:02:06.172Z,99555.61
2022-08-28T23:04:35.497Z,99553.85
2022-08-28T23:07:02.723Z,99548.95
2022-08-28T23:09:29.897Z,99549.86
2022-08-28T23:12:00.023Z,99551.41
2022-08-28T23:14:27.451Z,99558.86
2022-08-28T23:16:55.649Z,99558.73
2022-08-28T23:19:24.673Z,99556.94
2022-08-28T23:21:53.193Z,99559.27
2022-08-28T23:24:20.483Z,99555.42
2022-08-28T23:26:48.549Z,99558.02
2022-08-28T23:29:16.267Z,99559.63
2022-08-28T23:31:43.492Z,99562.46
2022-08-28T23:34:11.002Z,99562.33
2022-08-28T23:36:39.546Z,99562.55
2022-08-28T23:39:10.639Z,99565.17
2022-08-28T23:41:38.279Z,99564.61
2022-08-28T23:44:09.040Z,99561.91
2022-08-28T23:46:37.064Z,99563.93
2022-08-28T23:49:10.987Z,99561.60
2022-08-28T23:51:39.356Z,99565.70
2022-08-28T23:54:08.639Z,99562.67
2022-08-28T23:56:36.838Z,99563.05
2022-08-28T23:59:06.023Z,99559.41
